createdAt,value
2018-10-09T00:00:32.579Z,16.40
2018-10-09T00:01:12.278Z,17.03
2018-10-09T00:01:52.570Z,16.03
2018-10-09T00:02:32.746Z,16.73
2018-10-09T00:03:12.774Z,15.73
2018-10-09T00:03:52.578Z,16.43
2018-10-09T00:04:32.413Z,17.13
2018-10-09T00:05:12.030Z,16.20
2018-10-09T00:05:51.814Z,16.77
2018-10-09T00:06:32.422Z,16.48
2018-10-09T00:07:12.034Z,16.97
2018-10-09T00:07:53.059Z,17.30
2018-10-09T00:08:32.803Z,16.00
2018-10-09T00:09:12.444Z,15.87
2018-10-09T00:09:52.900Z,16.37
2018-10-09T00:10:32.835Z,15.87
2018-10-09T00:11:13.034Z,15.98
2018-10-09T00:11:53.975Z,15.58
2018-10-09T00:12:34.479Z,15.78
2018-10-09T00:13:14.132Z,16.50
2018-10-09T00:13:53.969Z,17.07
2018-10-09T00:14:33.944Z,16.30
2018-10-09T00:15:14.421Z,16.75
2018-10-09T00:15:54.238Z,15.10
2018-10-09T00:16:35.382Z,16.47
2018-10-09T00:17:15.767Z,17.00
2018-10-09T00:17:55.642Z,16.20
2018-10-09T00:18:35.584Z,17.10
2018-10-09T00:19:15.982Z,16.00
2018-10-09T00:19:56.443Z,16.27
2018-10-09T00:20:36.444Z,15.50
2018-10-09T00:21:16.461Z,17.40
2018-10-09T00:21:56.581Z,16.67
2018-10-09T00:22:37.368Z,15.45
2018-10-09T00:23:17.057Z,15.03
2018-10-09T00:23:57.709Z,16.23
2018-10-09T00:24:37.466Z,16.63
2018-10-09T00:25:17.101Z,16.10
2018-10-09T00:25:56.894Z,16.17
2018-10-09T00:26:36.799Z,16.70
2018-10-09T00:27:16.687Z,16.60
2018-10-09T00:27:56.923Z,16.57
2018-10-09T00:28:36.689Z,15.57
2018-10-09T00:29:16.398Z,16.93
2018-10-09T00:29:56.112Z,16.00
2018-10-09T00:30:35.702Z,16.70
2018-10-09T00:31:15.418Z,15.77
2018-10-09T00:31:55.086Z,16.10
2018-10-09T00:32:34.795Z,17.13
2018-10-09T00:33:14.424Z,16.13
2018-10-09T00:33:54.258Z,15.80
2018-10-09T00:34:33.997Z,15.87
2018-10-09T00:35:14.074Z,16.17
2018-10-09T00:35:54.143Z,16.03
2018-10-09T00:36:34.557Z,16.03
2018-10-09T00:37:14.073Z,15.93
2018-10-09T00:37:53.906Z,17.10
2018-10-09T00:38:33.870Z,14.90
2018-10-09T00:39:13.834Z,16.20
2018-10-09T00:39:53.610Z,15.00
2018-10-09T00:40:33.344Z,15.63
2018-10-09T00:41:13.550Z,16.20
2018-10-09T00:41:53.209Z,16.30
2018-10-09T00:42:33.042Z,16.67
2018-10-09T00:43:12.647Z,15.87
2018-10-09T00:43:52.413Z,16.17
2018-10-09T00:44:32.566Z,16.13
2018-10-09T00:45:12.171Z,15.73
2018-10-09T00:45:51.699Z,16.97
2018-10-09T00:46:31.288Z,15.43
2018-10-09T00:47:11.396Z,16.43
2018-10-09T00:47:51.152Z,16.73
2018-10-09T00:48:31.161Z,16.23
2018-10-09T00:49:10.716Z,16.23
2018-10-09T00:49:50.405Z,16.30
2018-10-09T00:50:30.459Z,16.50
2018-10-09T00:51:11.050Z,16.93
2018-10-09T00:51:50.964Z,16.90
2018-10-09T00:52:31.128Z,15.73
2018-10-09T00:53:10.719Z,16.50
2018-10-09T00:53:50.788Z,16.10
2018-10-09T00:54:30.770Z,17.00
2018-10-09T00:55:10.893Z,17.03
2018-10-09T00:55:50.592Z,17.60
2018-10-09T00:56:30.195Z,17.10
2018-10-09T00:57:09.902Z,16.10
2018-10-09T00:57:49.662Z,16.93
2018-10-09T00:58:29.296Z,17.83
2018-10-09T00:59:09.841Z,17.13
2018-10-09T00:59:49.498Z,16.30
2018-10-09T01:00:29.272Z,17.83
2018-10-09T01:01:09.284Z,18.27
2018-10-09T01:01:48.881Z,19.10
2018-10-09T01:02:28.703Z,18.07
2018-10-09T01:03:08.536Z,18.30
2018-10-09T01:03:48.096Z,19.30
2018-10-09T01:04:27.954Z,18.63
2018-10-09T01:05:07.980Z,17.83
2018-10-09T01:05:47.743Z,17.63
2018-10-09T01:06:27.490Z,18.73
2018-10-09T01:07:07.444Z,19.00
2018-10-09T01:07:47.173Z,17.57
2018-10-09T01:08:27.443Z,19.07
2018-10-09T01:09:08.780Z,18.73
2018-10-09T01:09:48.564Z,18.13
2018-10-09T01:10:28.300Z,18.17
2018-10-09T01:11:08.016Z,18.47
2018-10-09T01:11:48.047Z,19.43
2018-10-09T01:12:27.817Z,18.50
2018-10-09T01:13:08.028Z,18.10
2018-10-09T01:13:47.616Z,18.07
2018-10-09T01:14:27.241Z,18.27
2018-10-09T01:15:07.208Z,18.20
2018-10-09T01:15:46.803Z,18.73
2018-10-09T01:16:26.590Z,19.03
2018-10-09T01:17:06.693Z,18.43
2018-10-09T01:17:46.319Z,17.30
2018-10-09T01:18:25.884Z,18.20
2018-10-09T01:19:05.799Z,17.33
2018-10-09T01:19:45.613Z,17.20
2018-10-09T01:20:31.420Z,16.90
2018-10-09T01:21:11.151Z,17.53
2018-10-09T01:21:51.036Z,17.87
2018-10-09T01:22:30.924Z,16.80
2018-10-09T01:23:10.683Z,16.90
2018-10-09T01:23:50.384Z,16.47
2018-10-09T01:24:30.028Z,16.87
2018-10-09T01:25:09.830Z,17.67
2018-10-09T01:25:49.476Z,17.83
2018-10-09T01:26:29.207Z,16.30
2018-10-09T01:27:08.899Z,16.20
2018-10-09T01:27:48.863Z,15.20
2018-10-09T01:28:28.671Z,15.60
2018-10-09T01:29:08.323Z,14.53
2018-10-09T01:29:48.092Z,15.40
2018-10-09T01:30:27.747Z,14.87
2018-10-09T01:31:07.351Z,14.90
2018-10-09T01:31:47.059Z,15.10
2018-10-09T01:32:27.759Z,15.87
2018-10-09T01:33:08.225Z,13.73
2018-10-09T01:33:48.286Z,14.50
2018-10-09T01:34:28.774Z,15.33
2018-10-09T01:35:08.791Z,15.53
2018-10-09T01:35:49.264Z,15.40
2018-10-09T01:36:29.873Z,15.53
2018-10-09T01:37:09.458Z,15.97
2018-10-09T01:37:50.773Z,14.93
2018-10-09T01:38:31.384Z,16.30
2018-10-09T01:39:11.869Z,16.03
2018-10-09T01:39:52.354Z,16.10
2018-10-09T01:40:32.955Z,16.53
2018-10-09T01:41:14.225Z,15.60
2018-10-09T01:41:55.090Z,16.67
2018-10-09T01:42:35.367Z,15.37
2018-10-09T01:43:16.317Z,16.03
2018-10-09T01:43:56.855Z,15.77
2018-10-09T01:44:36.584Z,16.10
2018-10-09T01:45:16.287Z,15.60
2018-10-09T01:45:56.310Z,16.23
2018-10-09T01:46:36.228Z,16.20
2018-10-09T01:47:16.155Z,15.93
2018-10-09T01:47:56.083Z,15.63
2018-10-09T01:48:35.628Z,15.97
2018-10-09T01:49:15.590Z,16.30
2018-10-09T01:49:55.339Z,16.13
2018-10-09T01:50:35.186Z,15.37
2018-10-09T01:51:14.935Z,16.23
2018-10-09T01:51:54.779Z,16.23
2018-10-09T01:52:34.812Z,16.20
2018-10-09T01:53:14.544Z,16.83
2018-10-09T01:53:54.361Z,15.60
2018-10-09T01:54:34.300Z,15.70
2018-10-09T01:55:14.171Z,15.70
2018-10-09T01:55:53.938Z,15.77
2018-10-09T01:56:33.956Z,16.00
2018-10-09T01:57:13.573Z,14.63
2018-10-09T01:57:53.195Z,16.20
2018-10-09T01:58:33.102Z,17.00
2018-10-09T01:59:12.788Z,15.63
2018-10-09T01:59:52.381Z,16.07
2018-10-09T02:00:32.092Z,16.37
2018-10-09T02:01:11.917Z,16.20
2018-10-09T02:01:51.611Z,15.73
2018-10-09T02:02:31.305Z,16.67
2018-10-09T02:03:11.083Z,17.50
2018-10-09T02:03:50.770Z,16.63
2018-10-09T02:04:30.444Z,15.80
2018-10-09T02:05:10.615Z,16.70
2018-10-09T02:05:50.200Z,16.47
2018-10-09T02:06:30.025Z,15.40
2018-10-09T02:07:10.798Z,17.80
2018-10-09T02:07:50.576Z,16.07
2018-10-09T02:08:30.240Z,16.50
2018-10-09T02:09:10.199Z,17.03
2018-10-09T02:09:49.935Z,16.33
2018-10-09T02:10:29.658Z,17.00
2018-10-09T02:11:09.559Z,16.50
2018-10-09T02:11:49.385Z,16.03
2018-10-09T02:12:29.184Z,16.13
2018-10-09T02:13:08.932Z,17.17
2018-10-09T02:13:48.685Z,16.80
2018-10-09T02:14:28.620Z,16.97
2018-10-09T02:15:08.425Z,16.80
2018-10-09T02:15:48.030Z,17.03
2018-10-09T02:16:27.713Z,17.00
2018-10-09T02:17:07.393Z,16.43
2018-10-09T02:17:47.457Z,16.43
2018-10-09T02:18:27.281Z,16.83
2018-10-09T02:19:07.024Z,17.67
2018-10-09T02:19:46.875Z,16.80
2018-10-09T02:20:26.464Z,17.27
2018-10-09T02:21:06.348Z,17.03
2018-10-09T02:21:46.017Z,18.03
2018-10-09T02:22:25.801Z,19.17
2018-10-09T02:23:05.762Z,18.07
2018-10-09T02:23:45.319Z,17.63
2018-10-09T02:24:25.496Z,17.30
2018-10-09T02:25:05.762Z,16.83
2018-10-09T02:25:45.727Z,18.63
2018-10-09T02:26:26.105Z,17.93
2018-10-09T02:27:06.153Z,17.77
2018-10-09T02:27:45.869Z,17.67
2018-10-09T02:28:25.802Z,18.37
2018-10-09T02:29:06.050Z,18.50
2018-10-09T02:29:45.785Z,18.77
2018-10-09T02:30:25.776Z,18.63
2018-10-09T02:31:05.892Z,18.07
2018-10-09T02:31:45.685Z,18.27
2018-10-09T02:32:25.346Z,18.10
2018-10-09T02:33:05.148Z,17.37
2018-10-09T02:33:44.965Z,18.03
2018-10-09T02:34:25.231Z,16.90
2018-10-09T02:35:05.534Z,17.73
2018-10-09T02:35:45.306Z,17.23
2018-10-09T02:36:25.128Z,17.23
2018-10-09T02:37:05.260Z,18.00
2018-10-09T02:37:45.383Z,17.10
2018-10-09T02:38:25.063Z,16.87
2018-10-09T02:39:07.589Z,18.47
2018-10-09T02:39:47.202Z,17.10
2018-10-09T02:40:26.964Z,17.37
2018-10-09T02:41:06.566Z,16.40
2018-10-09T02:41:46.101Z,16.77
2018-10-09T02:42:25.734Z,18.13
2018-10-09T02:43:05.668Z,17.27
2018-10-09T02:43:45.168Z,17.83
2018-10-09T02:44:24.885Z,16.60
2018-10-09T02:45:04.477Z,17.37
2018-10-09T02:45:44.151Z,17.47
2018-10-09T02:46:23.785Z,18.07
2018-10-09T02:47:03.874Z,18.20
2018-10-09T02:47:43.652Z,18.23
2018-10-09T02:48:23.338Z,17.47
2018-10-09T02:49:03.119Z,17.87
2018-10-09T02:49:42.661Z,18.87
2018-10-09T02:50:22.192Z,18.23
2018-10-09T02:51:01.836Z,18.40
2018-10-09T02:51:41.343Z,18.33
2018-10-09T02:52:21.366Z,18.83
2018-10-09T02:53:01.209Z,19.40
2018-10-09T02:53:40.841Z,19.57
2018-10-09T02:54:20.444Z,18.77
2018-10-09T02:55:00.300Z,19.03
2018-10-09T02:55:39.856Z,18.80
2018-10-09T02:56:19.591Z,19.30
2018-10-09T02:56:59.392Z,19.30
2018-10-09T02:57:39.098Z,19.27
2018-10-09T02:58:18.831Z,18.83
2018-10-09T02:58:58.974Z,19.13
2018-10-09T02:59:38.775Z,19.73
2018-10-09T03:00:18.391Z,19.47
2018-10-09T03:00:58.125Z,19.20
2018-10-09T03:01:37.849Z,18.77
2018-10-09T03:02:17.482Z,19.23
2018-10-09T03:02:57.126Z,18.87
2018-10-09T03:03:36.640Z,19.70
2018-10-09T03:04:16.545Z,18.87
2018-10-09T03:04:56.585Z,18.70
2018-10-09T03:05:36.289Z,19.23
2018-10-09T03:06:15.948Z,19.40
2018-10-09T03:06:55.666Z,19.80
2018-10-09T03:07:35.308Z,19.50
2018-10-09T03:08:14.794Z,19.53
2018-10-09T03:08:54.466Z,18.10
2018-10-09T03:09:34.068Z,19.80
2018-10-09T03:10:13.553Z,19.50
2018-10-09T03:10:53.069Z,18.47
2018-10-09T03:11:32.796Z,18.27
2018-10-09T03:12:12.246Z,19.23
2018-10-09T03:12:51.863Z,19.00
2018-10-09T03:13:32.097Z,19.12
2018-10-09T03:14:11.626Z,18.67
2018-10-09T03:14:51.252Z,17.30
2018-10-09T03:15:31.025Z,18.30
2018-10-09T03:16:10.840Z,18.93
2018-10-09T03:16:50.483Z,19.17
2018-10-09T03:17:30.161Z,19.93
2018-10-09T03:18:09.927Z,19.37
2018-10-09T03:18:49.597Z,19.37
2018-10-09T03:19:29.254Z,17.87
2018-10-09T03:20:08.937Z,18.70
2018-10-09T03:20:48.679Z,18.27
2018-10-09T03:21:28.483Z,19.07
2018-10-09T03:22:08.066Z,19.03
2018-10-09T03:22:47.919Z,19.20
2018-10-09T03:23:27.685Z,19.50
2018-10-09T03:24:07.588Z,18.67
2018-10-09T03:24:47.094Z,19.33
2018-10-09T03:25:26.952Z,18.83
2018-10-09T03:26:07.277Z,20.10
2018-10-09T03:26:47.373Z,19.13
2018-10-09T03:27:27.039Z,19.17
2018-10-09T03:28:07.255Z,19.37
2018-10-09T03:28:47.035Z,20.17
2018-10-09T03:29:27.045Z,19.63
2018-10-09T03:30:08.244Z,21.07
2018-10-09T03:30:47.952Z,21.23
2018-10-09T03:31:30.925Z,22.23
2018-10-09T03:32:10.612Z,23.07
2018-10-09T03:32:50.243Z,23.93
2018-10-09T03:33:29.960Z,23.20
2018-10-09T03:34:09.629Z,22.63
2018-10-09T03:34:49.204Z,25.80
2018-10-09T03:35:29.111Z,27.50
2018-10-09T03:36:08.772Z,25.97
2018-10-09T03:36:48.265Z,25.77
2018-10-09T03:37:27.991Z,27.60
2018-10-09T03:38:08.012Z,26.43
2018-10-09T03:38:47.773Z,27.67
2018-10-09T03:39:27.570Z,28.73
2018-10-09T03:40:07.431Z,28.33
2018-10-09T03:40:47.199Z,27.93
2018-10-09T03:41:26.950Z,28.67
2018-10-09T03:42:06.765Z,29.90
2018-10-09T03:42:46.484Z,31.40
2018-10-09T03:43:26.369Z,31.77
2018-10-09T03:44:06.599Z,29.70
2018-10-09T03:44:46.336Z,33.23
2018-10-09T03:45:26.230Z,30.47
2018-10-09T03:46:05.972Z,31.67
2018-10-09T03:46:45.565Z,30.73
2018-10-09T03:47:25.396Z,30.57
2018-10-09T03:48:05.025Z,30.33
2018-10-09T03:48:44.599Z,30.27
2018-10-09T03:49:24.326Z,30.13
2018-10-09T03:50:05.091Z,30.77
2018-10-09T03:50:44.704Z,29.23
2018-10-09T03:51:24.472Z,29.60
2018-10-09T03:52:04.343Z,28.70
2018-10-09T03:52:43.931Z,28.17
2018-10-09T03:53:23.623Z,27.33
2018-10-09T03:54:03.378Z,27.10
2018-10-09T03:54:42.996Z,27.70
2018-10-09T03:55:22.603Z,27.53
2018-10-09T03:56:02.326Z,26.80
2018-10-09T03:56:42.422Z,26.93
2018-10-09T03:57:22.055Z,24.43
2018-10-09T03:58:01.734Z,24.90
2018-10-09T03:58:41.596Z,25.27
2018-10-09T03:59:21.284Z,25.87
2018-10-09T04:00:01.223Z,25.97
2018-10-09T04:00:40.895Z,25.20
2018-10-09T04:01:20.547Z,24.50
2018-10-09T04:02:00.186Z,25.07
2018-10-09T04:02:39.867Z,26.27
2018-10-09T04:03:19.585Z,24.40
2018-10-09T04:03:59.412Z,24.40
2018-10-09T04:04:38.951Z,24.33
2018-10-09T04:05:18.604Z,24.60
2018-10-09T04:05:58.374Z,23.47
2018-10-09T04:06:38.226Z,24.60
2018-10-09T04:07:18.044Z,23.50
2018-10-09T04:07:57.936Z,24.57
2018-10-09T04:08:37.528Z,24.47
2018-10-09T04:09:17.109Z,23.77
2018-10-09T04:09:56.996Z,23.47
2018-10-09T04:10:36.632Z,24.43
2018-10-09T04:11:16.473Z,23.77
2018-10-09T04:11:56.314Z,23.27
2018-10-09T04:12:36.051Z,24.67
2018-10-09T04:13:15.920Z,25.03
2018-10-09T04:13:55.847Z,24.40
2018-10-09T04:14:35.496Z,23.40
2018-10-09T04:15:15.096Z,22.93
2018-10-09T04:15:55.016Z,23.03
2018-10-09T04:16:34.657Z,23.13
2018-10-09T04:17:14.438Z,23.30
2018-10-09T04:17:54.255Z,24.17
2018-10-09T04:18:34.338Z,22.87
2018-10-09T04:19:14.137Z,22.40
2018-10-09T04:19:54.086Z,23.43
2018-10-09T04:20:33.981Z,23.50
2018-10-09T04:21:13.798Z,23.63
2018-10-09T04:21:53.622Z,22.87
2018-10-09T04:22:33.582Z,23.00
2018-10-09T04:23:13.249Z,22.00
2018-10-09T04:23:53.074Z,22.20
2018-10-09T04:24:32.994Z,22.07
2018-10-09T04:25:12.689Z,22.80
2018-10-09T04:25:52.415Z,22.60
2018-10-09T04:26:32.390Z,22.37
2018-10-09T04:27:12.485Z,21.47
2018-10-09T04:27:52.150Z,21.27
2018-10-09T04:28:31.906Z,22.97
2018-10-09T04:29:11.915Z,22.33
2018-10-09T04:29:51.692Z,22.97
2018-10-09T04:30:31.479Z,22.17
2018-10-09T04:31:11.239Z,22.77
2018-10-09T04:31:51.060Z,23.43
2018-10-09T04:32:30.919Z,22.00
2018-10-09T04:33:10.776Z,23.07
2018-10-09T04:33:50.471Z,22.13
2018-10-09T04:34:30.192Z,22.67
2018-10-09T04:35:09.854Z,22.63
2018-10-09T04:35:49.356Z,22.73
2018-10-09T04:36:29.179Z,22.60
2018-10-09T04:37:09.200Z,22.13
2018-10-09T04:37:48.701Z,21.37
2018-10-09T04:38:28.712Z,22.00
2018-10-09T04:39:09.639Z,22.67
2018-10-09T04:39:49.232Z,22.17
2018-10-09T04:40:28.897Z,22.80
2018-10-09T04:41:08.473Z,21.80
2018-10-09T04:41:48.072Z,21.60
2018-10-09T04:42:27.752Z,21.73
2018-10-09T04:43:07.500Z,21.40
2018-10-09T04:43:47.072Z,22.87
2018-10-09T04:44:26.904Z,22.53
2018-10-09T04:45:06.760Z,22.53
2018-10-09T04:45:46.356Z,22.73
2018-10-09T04:46:26.176Z,21.33
2018-10-09T04:47:05.866Z,22.43
2018-10-09T04:47:45.397Z,23.83
2018-10-09T04:48:25.364Z,23.00
2018-10-09T04:49:05.032Z,22.33
2018-10-09T04:49:45.052Z,21.50
2018-10-09T04:50:24.730Z,22.27
2018-10-09T04:51:41.795Z,22.43
2018-10-09T04:52:21.487Z,21.97
2018-10-09T04:53:01.254Z,22.20
2018-10-09T04:53:41.056Z,21.40
2018-10-09T04:54:20.802Z,22.47
2018-10-09T04:55:00.536Z,21.83
2018-10-09T04:55:40.043Z,20.57
2018-10-09T04:56:19.581Z,20.77
2018-10-09T04:56:59.756Z,21.20
2018-10-09T04:57:39.408Z,20.90
2018-10-09T04:58:19.056Z,20.17
2018-10-09T04:58:59.048Z,19.73
2018-10-09T04:59:39.024Z,20.70
2018-10-09T05:00:18.786Z,20.23
2018-10-09T05:00:58.749Z,20.53
2018-10-09T05:01:38.387Z,20.13
2018-10-09T05:02:18.112Z,20.20
2018-10-09T05:02:57.814Z,20.10
2018-10-09T05:03:37.427Z,20.10
2018-10-09T05:04:17.507Z,19.80
2018-10-09T05:04:57.305Z,20.37
2018-10-09T05:05:37.395Z,18.53
2018-10-09T05:06:17.211Z,20.20
2018-10-09T05:06:56.884Z,20.97
2018-10-09T05:07:36.702Z,20.43
2018-10-09T05:08:16.360Z,19.93
2018-10-09T05:08:56.129Z,19.97
2018-10-09T05:09:36.125Z,19.73
2018-10-09T05:10:15.824Z,20.40
2018-10-09T05:10:55.544Z,20.67
2018-10-09T05:11:35.241Z,19.50
2018-10-09T05:12:14.874Z,21.60
2018-10-09T05:12:55.104Z,20.67
2018-10-09T05:13:34.924Z,21.23
2018-10-09T05:14:14.620Z,21.60
2018-10-09T05:14:55.689Z,21.33
2018-10-09T05:15:35.696Z,20.90
2018-10-09T05:16:15.521Z,20.67
2018-10-09T05:16:55.371Z,20.90
2018-10-09T05:17:35.521Z,20.43
2018-10-09T05:18:15.429Z,21.67
2018-10-09T05:18:55.496Z,20.90
2018-10-09T05:19:35.217Z,21.10
2018-10-09T05:20:15.000Z,22.10
2018-10-09T05:20:54.782Z,22.70
2018-10-09T05:21:34.710Z,21.93
2018-10-09T05:22:14.352Z,22.47
2018-10-09T05:22:54.363Z,23.60
2018-10-09T05:23:34.121Z,22.83
2018-10-09T05:24:13.907Z,22.27
2018-10-09T05:24:53.683Z,23.77
2018-10-09T05:25:33.701Z,22.57
2018-10-09T05:26:13.587Z,23.30
2018-10-09T05:26:53.585Z,22.70
2018-10-09T05:27:33.592Z,22.37
2018-10-09T05:28:13.500Z,23.40
2018-10-09T05:28:53.221Z,22.33
2018-10-09T05:29:33.154Z,22.50
2018-10-09T05:30:12.931Z,22.40
2018-10-09T05:30:52.941Z,24.47
2018-10-09T05:31:33.205Z,25.57
2018-10-09T05:32:13.316Z,23.90
2018-10-09T05:32:53.080Z,22.43
2018-10-09T05:33:32.763Z,24.80
2018-10-09T05:34:12.408Z,24.00
2018-10-09T05:34:52.103Z,24.73
2018-10-09T05:35:31.936Z,24.03
2018-10-09T05:36:11.689Z,23.70
2018-10-09T05:36:51.441Z,22.63
2018-10-09T05:37:31.317Z,24.23
2018-10-09T05:38:11.453Z,23.97
2018-10-09T05:38:51.061Z,24.70
2018-10-09T05:39:30.815Z,24.80
2018-10-09T05:40:10.664Z,23.50
2018-10-09T05:40:50.530Z,23.93
2018-10-09T05:41:30.360Z,23.63
2018-10-09T05:42:10.016Z,23.50
2018-10-09T05:42:49.653Z,23.80
2018-10-09T05:43:29.512Z,24.50
2018-10-09T05:44:09.264Z,23.57
2018-10-09T05:44:49.099Z,24.30
2018-10-09T05:45:28.870Z,23.93
2018-10-09T05:46:09.290Z,25.00
2018-10-09T05:46:48.833Z,23.17
2018-10-09T05:47:28.622Z,23.03
2018-10-09T05:48:09.547Z,22.50
2018-10-09T05:48:49.376Z,22.97
2018-10-09T05:49:29.087Z,21.13
2018-10-09T05:50:10.923Z,22.43
2018-10-09T05:50:50.615Z,21.77
2018-10-09T05:51:30.278Z,23.10
2018-10-09T05:52:09.987Z,21.43
2018-10-09T05:52:49.668Z,22.23
2018-10-09T05:53:29.542Z,21.93
2018-10-09T05:54:09.396Z,22.50
2018-10-09T05:54:48.969Z,22.77
2018-10-09T05:55:28.739Z,22.50
2018-10-09T05:56:08.552Z,22.87
2018-10-09T05:56:48.475Z,23.13
2018-10-09T05:57:28.377Z,22.53
2018-10-09T05:58:08.714Z,22.47
2018-10-09T05:58:48.595Z,23.43
2018-10-09T05:59:28.624Z,22.20
2018-10-09T06:00:10.037Z,22.87
2018-10-09T06:00:49.591Z,22.17
2018-10-09T06:01:29.275Z,21.77
2018-10-09T06:02:09.503Z,21.90
2018-10-09T06:02:49.130Z,22.90
2018-10-09T06:03:28.812Z,22.97
2018-10-09T06:04:08.455Z,23.00
2018-10-09T06:04:48.236Z,23.23
2018-10-09T06:05:28.729Z,21.77
2018-10-09T06:06:08.908Z,21.57
2018-10-09T06:06:49.143Z,22.10
2018-10-09T06:07:29.496Z,22.90
2018-10-09T06:08:09.065Z,23.60
2018-10-09T06:08:48.684Z,24.40
2018-10-09T06:09:28.674Z,23.17
2018-10-09T06:10:09.751Z,22.53
2018-10-09T06:10:49.323Z,21.67
2018-10-09T06:11:29.122Z,22.10
2018-10-09T06:12:08.940Z,22.70
2018-10-09T06:12:48.624Z,22.80
2018-10-09T06:13:28.742Z,21.47
2018-10-09T06:14:08.921Z,21.67
2018-10-09T06:14:48.556Z,22.13
2018-10-09T06:15:28.432Z,21.67
2018-10-09T06:16:08.423Z,20.93
2018-10-09T06:16:48.376Z,21.50
2018-10-09T06:17:28.159Z,20.60
2018-10-09T06:18:07.722Z,20.03
2018-10-09T06:18:47.437Z,20.47
2018-10-09T06:19:27.433Z,19.87
2018-10-09T06:20:07.339Z,20.73
2018-10-09T06:20:46.924Z,20.17
2018-10-09T06:21:26.768Z,21.00
2018-10-09T06:22:06.570Z,20.93
2018-10-09T06:22:46.491Z,20.63
2018-10-09T06:23:26.188Z,21.10
2018-10-09T06:24:06.616Z,21.53
2018-10-09T06:24:46.221Z,20.73
2018-10-09T06:25:25.947Z,20.83
2018-10-09T06:26:05.711Z,21.87
2018-10-09T06:26:45.468Z,19.57
2018-10-09T06:27:25.480Z,22.13
2018-10-09T06:28:05.692Z,21.67
2018-10-09T06:28:45.653Z,20.83
2018-10-09T06:29:25.986Z,21.07
2018-10-09T06:30:06.172Z,20.73
2018-10-09T06:30:45.838Z,21.10
2018-10-09T06:31:25.685Z,19.63
2018-10-09T06:32:05.688Z,20.63
2018-10-09T06:32:45.315Z,20.37
2018-10-09T06:33:25.383Z,20.33
2018-10-09T06:34:05.146Z,20.10
2018-10-09T06:34:45.042Z,20.63
2018-10-09T06:35:25.053Z,20.88
2018-10-09T06:36:04.885Z,19.70
2018-10-09T06:36:44.579Z,20.83
2018-10-09T06:37:24.288Z,20.80
2018-10-09T06:38:03.992Z,20.97
2018-10-09T06:38:43.648Z,21.30
2018-10-09T06:39:23.417Z,21.13
2018-10-09T06:40:03.348Z,20.83
2018-10-09T06:40:43.005Z,20.47
2018-10-09T06:41:22.687Z,20.37
2018-10-09T06:42:02.516Z,20.00
2018-10-09T06:42:42.200Z,21.70
2018-10-09T06:43:21.951Z,21.53
2018-10-09T06:44:01.835Z,21.37
2018-10-09T06:44:41.500Z,21.40
2018-10-09T06:45:21.174Z,21.73
2018-10-09T06:46:00.967Z,21.07
2018-10-09T06:46:40.832Z,20.40
2018-10-09T06:47:20.540Z,20.37
2018-10-09T06:48:00.255Z,19.47
2018-10-09T06:48:40.138Z,20.27
2018-10-09T06:49:19.897Z,18.97
2018-10-09T06:49:59.611Z,20.47
2018-10-09T06:50:39.230Z,19.70
2018-10-09T06:51:18.926Z,21.57
2018-10-09T06:51:59.082Z,19.93
2018-10-09T06:52:38.967Z,19.90
2018-10-09T06:53:18.823Z,20.30
2018-10-09T06:53:58.719Z,21.50
2018-10-09T06:54:38.597Z,20.83
2018-10-09T06:55:18.657Z,21.67
2018-10-09T06:55:58.349Z,20.70
2018-10-09T06:56:38.226Z,21.20
2018-10-09T06:57:17.923Z,20.67
2018-10-09T06:57:57.844Z,21.13
2018-10-09T06:58:37.944Z,21.47
2018-10-09T06:59:17.533Z,21.27
2018-10-09T06:59:57.579Z,20.20
2018-10-09T07:00:37.276Z,19.87
2018-10-09T07:01:16.983Z,19.70
2018-10-09T07:01:56.736Z,19.53
2018-10-09T07:02:36.456Z,21.20
2018-10-09T07:03:16.130Z,20.00
2018-10-09T07:03:56.048Z,20.67
2018-10-09T07:04:35.644Z,19.47
2018-10-09T07:05:15.474Z,20.50
2018-10-09T07:05:55.730Z,20.17
2018-10-09T07:06:35.815Z,20.97
2018-10-09T07:07:15.718Z,21.43
2018-10-09T07:07:55.740Z,21.40
2018-10-09T07:08:35.487Z,22.03
2018-10-09T07:09:15.026Z,20.77
2018-10-09T07:09:54.672Z,20.93
2018-10-09T07:10:34.516Z,21.57
2018-10-09T07:11:14.408Z,21.07
2018-10-09T07:11:54.488Z,20.80
2018-10-09T07:12:34.295Z,20.53
2018-10-09T07:13:13.864Z,22.30
2018-10-09T07:13:54.061Z,20.67
2018-10-09T07:14:33.835Z,21.33
2018-10-09T07:15:13.964Z,21.17
2018-10-09T07:15:53.716Z,21.00
2018-10-09T07:16:33.740Z,21.20
2018-10-09T07:17:13.529Z,20.77
2018-10-09T07:17:53.880Z,20.70
2018-10-09T07:18:33.556Z,21.33
2018-10-09T07:19:13.115Z,20.67
2018-10-09T07:19:53.133Z,20.87
2018-10-09T07:20:33.218Z,21.77
2018-10-09T07:21:12.885Z,22.03
2018-10-09T07:21:52.716Z,21.97
2018-10-09T07:22:32.533Z,21.57
2018-10-09T07:23:12.056Z,22.83
2018-10-09T07:23:51.600Z,22.97
2018-10-09T07:24:31.701Z,23.27
2018-10-09T07:25:11.384Z,21.13
2018-10-09T07:25:51.097Z,20.67
2018-10-09T07:26:30.947Z,21.43
2018-10-09T07:27:10.646Z,20.83
2018-10-09T07:27:50.341Z,21.90
2018-10-09T07:28:30.417Z,21.47
2018-10-09T07:29:10.117Z,20.70
2018-10-09T07:29:49.692Z,22.07
2018-10-09T07:30:29.433Z,21.00
2018-10-09T07:31:09.416Z,22.77
2018-10-09T07:31:49.008Z,21.87
2018-10-09T07:32:28.951Z,22.23
2018-10-09T07:33:09.140Z,21.75
2018-10-09T07:33:56.099Z,21.95
2018-10-09T07:34:36.444Z,20.80
2018-10-09T07:35:16.772Z,21.40
2018-10-09T07:35:57.089Z,22.62
2018-10-09T07:36:37.544Z,22.52
2018-10-09T07:37:17.296Z,21.53
2018-10-09T07:37:58.138Z,22.37
2018-10-09T07:38:37.888Z,21.57
2018-10-09T07:39:18.048Z,22.10
2018-10-09T07:39:58.600Z,22.40
2018-10-09T07:40:39.019Z,22.93
2018-10-09T07:41:19.296Z,22.07
2018-10-09T07:41:59.561Z,22.58
2018-10-09T07:42:39.760Z,22.85
2018-10-09T07:43:19.597Z,22.10
2018-10-09T07:43:59.486Z,21.57
2018-10-09T07:44:39.857Z,21.67
2018-10-09T07:45:19.477Z,22.07
2018-10-09T07:45:59.411Z,22.30
2018-10-09T07:46:39.984Z,23.30
2018-10-09T07:47:20.281Z,23.15
2018-10-09T07:48:00.012Z,23.17
2018-10-09T07:48:40.636Z,23.05
2018-10-09T07:49:20.355Z,22.50
2018-10-09T07:50:00.791Z,23.38
2018-10-09T07:50:41.388Z,23.95
2018-10-09T07:51:21.324Z,22.60
2018-10-09T07:52:01.838Z,23.52
2018-10-09T07:52:41.673Z,23.97
2018-10-09T07:53:22.336Z,22.73
2018-10-09T07:54:02.745Z,23.98
2018-10-09T07:54:43.004Z,23.73
2018-10-09T07:55:23.755Z,23.00
2018-10-09T07:56:04.414Z,23.62
2018-10-09T07:56:44.841Z,22.80
2018-10-09T07:57:25.409Z,22.90
2018-10-09T07:58:05.673Z,22.80
2018-10-09T07:58:46.007Z,22.95
2018-10-09T07:59:26.438Z,22.25
2018-10-09T08:00:07.141Z,21.70
2018-10-09T08:00:47.564Z,23.60
2018-10-09T08:01:27.745Z,23.92
2018-10-09T08:02:08.427Z,22.45
2018-10-09T08:02:48.603Z,23.30
2018-10-09T08:03:28.901Z,22.37
2018-10-09T08:04:09.160Z,24.15
2018-10-09T08:04:49.661Z,23.55
2018-10-09T08:05:30.144Z,23.75
2018-10-09T08:06:10.479Z,21.45
2018-10-09T08:06:51.327Z,22.98
2018-10-09T08:07:32.186Z,22.90
2018-10-09T08:08:12.693Z,23.20
2018-10-09T08:08:53.053Z,24.45
2018-10-09T08:09:33.258Z,23.65
2018-10-09T08:10:13.710Z,24.25
2018-10-09T08:10:53.899Z,24.52
2018-10-09T08:11:34.475Z,23.40
2018-10-09T08:12:14.717Z,24.40
2018-10-09T08:12:55.195Z,25.68
2018-10-09T08:13:35.433Z,23.90
2018-10-09T08:14:15.710Z,25.32
2018-10-09T08:14:56.218Z,25.27
2018-10-09T08:15:36.583Z,25.35
2018-10-09T08:16:16.772Z,24.30
2018-10-09T08:16:57.343Z,25.25
2018-10-09T08:17:37.712Z,23.40
2018-10-09T08:18:17.996Z,25.00
2018-10-09T08:18:58.588Z,24.43
2018-10-09T08:19:38.893Z,24.10
2018-10-09T08:20:19.204Z,24.70
2018-10-09T08:20:59.520Z,24.50
2018-10-09T08:21:40.032Z,24.82
2018-10-09T08:22:20.610Z,22.65
2018-10-09T08:23:01.335Z,25.10
2018-10-09T08:23:42.621Z,25.40
2018-10-09T08:24:22.991Z,25.75
2018-10-09T08:25:03.433Z,25.77
2018-10-09T08:25:43.608Z,26.35
2018-10-09T08:26:24.508Z,25.90
2018-10-09T08:27:05.152Z,25.65
2018-10-09T08:27:45.445Z,25.05
2018-10-09T08:28:26.102Z,24.70
2018-10-09T08:29:06.477Z,27.93
2018-10-09T08:29:46.709Z,26.68
2018-10-09T08:30:27.039Z,26.90
2018-10-09T08:31:07.720Z,28.07
2018-10-09T08:31:47.917Z,27.60
2018-10-09T08:32:28.843Z,30.65
2018-10-09T08:33:09.471Z,29.25
2018-10-09T08:33:49.677Z,31.80
2018-10-09T08:34:30.566Z,29.63
2018-10-09T08:35:10.976Z,31.17